Terminal Aerodrome Forecast
Issued by NWS

Home | Current Version | Previous Version | Text Only | Print | Product List | Glossary Off
Versions: 1 2 3 4 5 6 7 8 9 10 11 12 13 14

000
FTUS43 KBIS 190535
TAFJMS
TAF
KJMS 190535Z 1906/2006 20005KT P6SM FEW300
     FM191000 18006KT P6SM SCT250 WS020/22030KT
     FM191500 20010KT P6SM SCT250
     FM192300 17008KT P6SM FEW300=

USA.gov is the U.S. government's official web portal to all federal, state and local government web resources and services.